This is the latest recevied weather packets stored in our database for station/object K5UTC. If no packets are shown the sender has not sent any weather packets the latest 1 day(s).
| Time | Temp. | Humidity | Pressure | Rain* | Wind** | Luminosity | Snow |
|---|---|---|---|---|---|---|---|
| 1778031800 | 22.78° C | 64% | 1009.1 hPa | 0 mm | 0 m/s | 0 W/m² | - |
| 1778031497 | 22.78° C | 64% | 1009.3 hPa | 0 mm | 0.45 m/s, 122° | 0 W/m² | - |
| 1778031194 | 22.78° C | 62% | 1009.6 hPa | 0 mm | 1.34 m/s, 137° | 0 W/m² | - |
| 1778030891 | 22.78° C | 64% | 1009.1 hPa | 0 mm | 0.89 m/s, 122° | 0 W/m² | - |
| 1778030588 | 22.78° C | 64% | 1009.3 hPa | 0 mm | 0.45 m/s, 156° | 0 W/m² | - |
| 1778030285 | 22.78° C | 64% | 1009.2 hPa | 0 mm | 0.89 m/s, 260° | 0 W/m² | - |
| 1778029981 | 22.78° C | 65% | 1009.1 hPa | 0 mm | 0.89 m/s, 180° | 0 W/m² | - |
| 1778029680 | 22.78° C | 65% | 1009.3 hPa | 0 mm | 0.89 m/s, 150° | 0 W/m² | - |
| 1778029377 | 22.78° C | 65% | 1009.2 hPa | 0 mm | 0 m/s | 0 W/m² | - |
| 1778029074 | 22.78° C | 65% | 1009.2 hPa | 0 mm | 0.45 m/s, 141° | 0 W/m² | - |
| 1778028770 | 22.78° C | 64% | 1009.2 hPa | 0 mm | 0 m/s | 0 W/m² | - |
| 1778028466 | 22.78° C | 65% | 1009.3 hPa | 0 mm | 0.45 m/s, 161° | 0 W/m² | - |
| 1778028164 | 22.78° C | 63% | 1009.2 hPa | 0 mm | 0 m/s | 1 W/m² | - |
| 1778027860 | 22.78° C | 65% | 1009.1 hPa | 0 mm | 0.45 m/s, 155° | 1 W/m² | - |
| 1778027557 | 22.78° C | 62% | 1009.1 hPa | 0 mm | 0.45 m/s, 100° | 2 W/m² | - |
| 1778027253 | 22.78° C | 63% | 1009.1 hPa | 0 mm | 0 m/s | 2 W/m² | - |
| 1778026949 | 22.78° C | 64% | 1008.9 hPa | 0 mm | 0.45 m/s, 150° | 3 W/m² | - |
| 1778026645 | 22.78° C | 63% | 1008.9 hPa | 0 mm | 0 m/s | 6 W/m² | - |
| 1778026343 | 22.78° C | 62% | 1009 hPa | 0 mm | 0.45 m/s, 186° | 10 W/m² | - |
| 1778026039 | 22.78° C | 62% | 1008.7 hPa | 0 mm | 0 m/s | 12 W/m² | - |
| 1778025737 | 22.78° C | 62% | 1008.9 hPa | 0 mm | 0.45 m/s, 152° | 14 W/m² | - |
| 1778025434 | 23.33° C | 63% | 1008.9 hPa | 0 mm | 0 m/s | 16 W/m² | - |
| 1778025132 | 23.33° C | 62% | 1009.2 hPa | 0 mm | 0.89 m/s, 67° | 22 W/m² | - |
| 1778024828 | 23.33° C | 61% | 1009.2 hPa | 0 mm | 1.34 m/s, 246° | 32 W/m² | - |
| 1778024526 | 23.33° C | 60% | 1009.1 hPa | 0 mm | 0 m/s | 43 W/m² | - |
* Rain latest hour (hover to see other rain measurements)
** Current wind speed in m/s (hover to see current wind gust speed)